sensor_id;sensor_type;location;lat;lon;timestamp;pressure;altitude;pressure_sealevel;temperature;humidity
62420;BME280;48460;51.616;5.426;2022-08-19T00:00:18;101295.88;;;17.15;100.00
62420;BME280;48460;51.616;5.426;2022-08-19T00:02:44;101287.41;;;17.10;100.00
62420;BME280;48460;51.616;5.426;2022-08-19T00:05:10;101281.97;;;17.12;100.00
62420;BME280;48460;51.616;5.426;2022-08-19T00:07:36;101289.56;;;17.05;100.00
62420;BME280;48460;51.616;5.426;2022-08-19T00:10:06;101283.94;;;16.97;100.00
62420;BME280;48460;51.616;5.426;2022-08-19T00:12:33;101286.50;;;16.85;100.00
62420;BME280;48460;51.616;5.426;2022-08-19T00:14:59;101291.94;;;16.84;100.00
62420;BME280;48460;51.616;5.426;2022-08-19T00:17:25;101287.47;;;16.84;100.00
62420;BME280;48460;51.616;5.426;2022-08-19T00:19:50;101290.13;;;16.84;100.00
62420;BME280;48460;51.616;5.426;2022-08-19T00:22:16;101293.84;;;16.82;100.00
62420;BME280;48460;51.616;5.426;2022-08-19T00:24:46;101298.09;;;16.84;100.00
62420;BME280;48460;51.616;5.426;2022-08-19T00:27:12;101291.59;;;16.89;100.00
62420;BME280;48460;51.616;5.426;2022-08-19T00:29:37;101293.19;;;16.91;100.00
62420;BME280;48460;51.616;5.426;2022-08-19T00:32:03;101292.00;;;16.95;100.00
62420;BME280;48460;51.616;5.426;2022-08-19T00:34:32;101291.91;;;16.97;100.00
62420;BME280;48460;51.616;5.426;2022-08-19T00:36:58;101287.34;;;16.99;100.00
62420;BME280;48460;51.616;5.426;2022-08-19T00:39:23;101295.72;;;17.05;100.00
62420;BME280;48460;51.616;5.426;2022-08-19T00:41:50;101298.38;;;17.05;100.00
62420;BME280;48460;51.616;5.426;2022-08-19T00:44:22;101294.75;;;17.06;100.00
62420;BME280;48460;51.616;5.426;2022-08-19T00:46:50;101292.00;;;17.08;100.00
62420;BME280;48460;51.616;5.426;2022-08-19T00:49:25;101291.63;;;17.13;100.00
62420;BME280;48460;51.616;5.426;2022-08-19T00:51:57;101294.06;;;17.16;100.00
62420;BME280;48460;51.616;5.426;2022-08-19T00:54:24;101295.13;;;17.26;100.00
62420;BME280;48460;51.616;5.426;2022-08-19T00:56:50;101285.25;;;17.15;100.00
62420;BME280;48460;51.616;5.426;2022-08-19T00:59:18;101288.28;;;17.11;100.00
62420;BME280;48460;51.616;5.426;2022-08-19T01:01:44;101279.31;;;17.12;100.00
62420;BME280;48460;51.616;5.426;2022-08-19T01:04:11;101285.25;;;17.15;100.00
62420;BME280;48460;51.616;5.426;2022-08-19T01:06:38;101284.41;;;17.15;100.00
62420;BME280;48460;51.616;5.426;2022-08-19T01:09:05;101276.44;;;17.15;100.00
62420;BME280;48460;51.616;5.426;2022-08-19T01:11:35;101291.16;;;17.07;100.00
62420;BME280;48460;51.616;5.426;2022-08-19T01:14:01;101292.66;;;16.99;100.00
62420;BME280;48460;51.616;5.426;2022-08-19T01:16:28;101298.41;;;16.80;100.00
62420;BME280;48460;51.616;5.426;2022-08-19T01:18:54;101300.44;;;16.76;100.00
62420;BME280;48460;51.616;5.426;2022-08-19T01:23:48;101297.00;;;16.74;100.00
62420;BME280;48460;51.616;5.426;2022-08-19T01:26:20;101298.19;;;16.83;100.00
62420;BME280;48460;51.616;5.426;2022-08-19T01:28:48;101294.47;;;16.85;100.00
62420;BME280;48460;51.616;5.426;2022-08-19T01:31:20;101298.84;;;16.87;100.00
62420;BME280;48460;51.616;5.426;2022-08-19T01:33:48;101296.28;;;16.85;100.00
62420;BME280;48460;51.616;5.426;2022-08-19T01:36:21;101298.19;;;16.83;100.00
62420;BME280;48460;51.616;5.426;2022-08-19T01:38:47;101296.91;;;16.89;100.00
62420;BME280;48460;51.616;5.426;2022-08-19T01:41:13;101292.34;;;16.91;100.00
62420;BME280;48460;51.616;5.426;2022-08-19T01:43:39;101287.78;;;16.93;100.00
62420;BME280;48460;51.616;5.426;2022-08-19T01:46:04;101287.78;;;16.93;100.00
62420;BME280;48460;51.616;5.426;2022-08-19T01:48:35;101290.66;;;16.90;100.00
62420;BME280;48460;51.616;5.426;2022-08-19T01:51:01;101289.16;;;16.85;100.00
62420;BME280;48460;51.616;5.426;2022-08-19T01:53:27;101288.41;;;16.83;100.00
62420;BME280;48460;51.616;5.426;2022-08-19T01:55:53;101283.53;;;16.77;100.00
62420;BME280;48460;51.616;5.426;2022-08-19T01:58:22;101276.63;;;16.75;100.00
62420;BME280;48460;51.616;5.426;2022-08-19T02:00:49;101285.34;;;16.77;100.00
62420;BME280;48460;51.616;5.426;2022-08-19T02:03:15;101287.34;;;16.73;100.00
62420;BME280;48460;51.616;5.426;2022-08-19T02:05:42;101286.81;;;16.68;100.00
62420;BME280;48460;51.616;5.426;2022-08-19T02:08:08;101288.53;;;16.69;100.00
62420;BME280;48460;51.616;5.426;2022-08-19T02:10:39;101293.50;;;16.74;100.00
62420;BME280;48460;51.616;5.426;2022-08-19T02:13:04;101293.50;;;16.74;100.00
62420;BME280;48460;51.616;5.426;2022-08-19T02:15:30;101294.34;;;16.74;100.00
62420;BME280;48460;51.616;5.426;2022-08-19T02:17:55;101308.41;;;16.63;100.00
62420;BME280;48460;51.616;5.426;2022-08-19T02:20:21;101294.06;;;16.53;100.00
62420;BME280;48460;51.616;5.426;2022-08-19T02:22:49;101301.28;;;16.51;100.00
62420;BME280;48460;51.616;5.426;2022-08-19T02:25:15;101314.03;;;16.46;100.00
62420;BME280;48460;51.616;5.426;2022-08-19T02:27:42;101309.56;;;16.47;100.00
62420;BME280;48460;51.616;5.426;2022-08-19T02:30:11;101303.28;;;16.48;100.00
62420;BME280;48460;51.616;5.426;2022-08-19T02:32:37;101301.28;;;16.51;100.00
62420;BME280;48460;51.616;5.426;2022-08-19T02:35:03;101309.13;;;16.53;100.00
62420;BME280;48460;51.616;5.426;2022-08-19T02:37:28;101313.06;;;16.47;100.00
62420;BME280;48460;51.616;5.426;2022-08-19T02:40:12;101310.75;;;16.43;100.00
62420;BME280;48460;51.616;5.426;2022-08-19T02:42:37;101314.66;;;16.37;100.00
62420;BME280;48460;51.616;5.426;2022-08-19T02:45:04;101310.31;;;16.36;100.00
62420;BME280;48460;51.616;5.426;2022-08-19T02:47:30;101310.31;;;16.36;100.00
62420;BME280;48460;51.616;5.426;2022-08-19T02:49:55;101319.97;;;16.37;100.00
62420;BME280;48460;51.616;5.426;2022-08-19T02:52:20;101321.56;;;16.39;100.00
62420;BME280;48460;51.616;5.426;2022-08-19T02:54:48;101319.13;;;16.36;100.00
62420;BME280;48460;51.616;5.426;2022-08-19T02:57:14;101329.53;;;16.39;100.00
62420;BME280;48460;51.616;5.426;2022-08-19T02:59:39;101324.88;;;16.43;100.00
62420;BME280;48460;51.616;5.426;2022-08-19T03:02:05;101333.59;;;16.45;100.00
62420;BME280;48460;51.616;5.426;2022-08-19T03:04:30;101331.13;;;16.42;100.00
62420;BME280;48460;51.616;5.426;2022-08-19T03:06:55;101324.94;;;16.41;100.00
62420;BME280;48460;51.616;5.426;2022-08-19T03:09:21;101323.19;;;16.42;100.00
62420;BME280;48460;51.616;5.426;2022-08-19T03:11:47;101311.59;;;16.43;100.00
62420;BME280;48460;51.616;5.426;2022-08-19T03:14:13;101315.84;;;16.46;100.00
62420;BME280;48460;51.616;5.426;2022-08-19T03:16:51;101310.84;;;16.41;100.00
62420;BME280;48460;51.616;5.426;2022-08-19T03:19:19;101315.81;;;16.33;100.00
62420;BME280;48460;51.616;5.426;2022-08-19T03:21:46;101324.94;;;16.29;100.00
62420;BME280;48460;51.616;5.426;2022-08-19T03:24:13;101326.75;;;16.28;100.00
62420;BME280;48460;51.616;5.426;2022-08-19T03:26:48;101324.88;;;16.30;100.00
62420;BME280;48460;51.616;5.426;2022-08-19T03:29:15;101322.94;;;16.32;100.00
62420;BME280;48460;51.616;5.426;2022-08-19T03:31:42;101324.88;;;16.30;100.00
62420;BME280;48460;51.616;5.426;2022-08-19T03:34:13;101314.03;;;16.33;100.00
62420;BME280;48460;51.616;5.426;2022-08-19T03:36:39;101312.22;;;16.34;100.00
62420;BME280;48460;51.616;5.426;2022-08-19T03:39:04;101313.50;;;16.28;100.00
62420;BME280;48460;51.616;5.426;2022-08-19T03:41:32;101321.44;;;16.28;100.00
62420;BME280;48460;51.616;5.426;2022-08-19T03:43:58;101322.31;;;16.29;100.00
62420;BME280;48460;51.616;5.426;2022-08-19T03:46:27;101323.16;;;16.29;100.00
62420;BME280;48460;51.616;5.426;2022-08-19T03:48:55;101311.91;;;16.26;100.00
62420;BME280;48460;51.616;5.426;2022-08-19T03:51:26;101307.84;;;16.20;100.00
62420;BME280;48460;51.616;5.426;2022-08-19T03:53:52;101302.03;;;16.28;100.00
62420;BME280;48460;51.616;5.426;2022-08-19T03:56:18;101305.31;;;16.18;100.00
62420;BME280;48460;51.616;5.426;2022-08-19T03:58:45;101302.97;;;16.14;100.00
62420;BME280;48460;51.616;5.426;2022-08-19T04:01:16;101296.19;;;16.10;100.00
62420;BME280;48460;51.616;5.426;2022-08-19T04:03:43;101300.84;;;16.06;100.00
62420;BME280;48460;51.616;5.426;2022-08-19T04:06:17;101308.06;;;16.04;100.00
62420;BME280;48460;51.616;5.426;2022-08-19T04:08:45;101310.06;;;16.01;100.00
62420;BME280;48460;51.616;5.426;2022-08-19T04:11:14;101309.19;;;16.00;100.00
62420;BME280;48460;51.616;5.426;2022-08-19T04:13:41;101312.81;;;15.99;100.00
62420;BME280;48460;51.616;5.426;2022-08-19T04:16:10;101312.81;;;15.99;100.00
62420;BME280;48460;51.616;5.426;2022-08-19T04:18:38;101311.75;;;16.02;100.00
62420;BME280;48460;51.616;5.426;2022-08-19T04:21:04;101302.63;;;16.06;100.00
62420;BME280;48460;51.616;5.426;2022-08-19T04:23:30;101304.75;;;16.01;100.00
62420;BME280;48460;51.616;5.426;2022-08-19T04:25:56;101321.09;;;15.94;100.00
62420;BME280;48460;51.616;5.426;2022-08-19T04:28:25;101307.50;;;15.99;100.00
62420;BME280;48460;51.616;5.426;2022-08-19T04:30:53;101303.88;;;16.00;100.00
62420;BME280;48460;51.616;5.426;2022-08-19T04:33:24;101303.03;;;16.00;100.00
62420;BME280;48460;51.616;5.426;2022-08-19T04:35:51;101297.00;;;15.98;100.00
62420;BME280;48460;51.616;5.426;2022-08-19T04:38:19;101303.88;;;16.00;100.00
62420;BME280;48460;51.616;5.426;2022-08-19T04:40:51;101296.25;;;15.95;100.00
62420;BME280;48460;51.616;5.426;2022-08-19T04:43:37;101296.47;;;15.92;100.00
62420;BME280;48460;51.616;5.426;2022-08-19T04:46:12;101304.72;;;15.88;100.00
62420;BME280;48460;51.616;5.426;2022-08-19T04:48:39;101314.25;;;15.78;100.00
62420;BME280;48460;51.616;5.426;2022-08-19T04:51:10;101311.59;;;15.78;100.00
62420;BME280;48460;51.616;5.426;2022-08-19T04:53:38;101319.19;;;15.69;100.00
62420;BME280;48460;51.616;5.426;2022-08-19T04:56:10;101321.19;;;15.66;100.00
62420;BME280;48460;51.616;5.426;2022-08-19T04:58:38;101316.16;;;15.61;100.00
62420;BME280;48460;51.616;5.426;2022-08-19T05:01:04;101324.31;;;15.58;100.00
62420;BME280;48460;51.616;5.426;2022-08-19T05:03:30;101329.72;;;15.57;100.00
62420;BME280;48460;51.616;5.426;2022-08-19T05:06:06;101334.59;;;15.50;100.00
62420;BME280;48460;51.616;5.426;2022-08-19T05:08:34;101332.66;;;15.52;100.00
62420;BME280;48460;51.616;5.426;2022-08-19T05:11:00;101331.19;;;15.48;100.00
62420;BME280;48460;51.616;5.426;2022-08-19T05:13:26;101333.78;;;15.35;100.00
62420;BME280;48460;51.616;5.426;2022-08-19T05:15:57;101335.41;;;15.23;100.00
62420;BME280;48460;51.616;5.426;2022-08-19T05:18:23;101336.53;;;15.19;100.00
62420;BME280;48460;51.616;5.426;2022-08-19T05:21:08;101351.03;;;15.14;100.00
62420;BME280;48460;51.616;5.426;2022-08-19T05:23:53;101350.63;;;15.20;100.00
62420;BME280;48460;51.616;5.426;2022-08-19T05:26:18;101351.75;;;15.30;100.00
62420;BME280;48460;51.616;5.426;2022-08-19T05:28:44;101360.28;;;15.35;100.00
62420;BME280;48460;51.616;5.426;2022-08-19T05:31:09;101366.63;;;15.33;100.00
62420;BME280;48460;51.616;5.426;2022-08-19T05:33:34;101360.28;;;15.35;100.00
62420;BME280;48460;51.616;5.426;2022-08-19T05:36:01;101367.34;;;15.35;100.00
62420;BME280;48460;51.616;5.426;2022-08-19T05:38:27;101370.00;;;15.35;100.00
62420;BME280;48460;51.616;5.426;2022-08-19T05:40:53;101373.97;;;15.42;100.00
62420;BME280;48460;51.616;5.426;2022-08-19T05:43:19;101375.00;;;15.54;100.00
62420;BME280;48460;51.616;5.426;2022-08-19T05:45:45;101376.28;;;15.61;100.00
62420;BME280;48460;51.616;5.426;2022-08-19T05:48:11;101373.19;;;15.68;100.00
62420;BME280;48460;51.616;5.426;2022-08-19T05:50:39;101378.75;;;15.78;100.00
62420;BME280;48460;51.616;5.426;2022-08-19T05:53:04;101379.94;;;15.87;100.00
62420;BME280;48460;51.616;5.426;2022-08-19T05:55:30;101368.94;;;15.93;100.00
62420;BME280;48460;51.616;5.426;2022-08-19T05:57:56;101379.03;;;16.01;100.00
62420;BME280;48460;51.616;5.426;2022-08-19T06:00:24;101377.78;;;16.06;100.00
62420;BME280;48460;51.616;5.426;2022-08-19T06:02:49;101381.59;;;16.15;100.00
62420;BME280;48460;51.616;5.426;2022-08-19T06:05:16;101368.25;;;16.16;100.00
62420;BME280;48460;51.616;5.426;2022-08-19T06:07:41;101367.63;;;16.26;100.00
62420;BME280;48460;51.616;5.426;2022-08-19T06:10:10;101358.28;;;16.33;100.00
62420;BME280;48460;51.616;5.426;2022-08-19T06:12:37;101356.38;;;16.48;100.00
62420;BME280;48460;51.616;5.426;2022-08-19T06:15:12;101360.97;;;16.58;100.00
62420;BME280;48460;51.616;5.426;2022-08-19T06:17:38;101353.44;;;16.65;100.00
62420;BME280;48460;51.616;5.426;2022-08-19T06:20:06;101342.38;;;16.71;100.00
62420;BME280;48460;51.616;5.426;2022-08-19T06:22:38;101341.34;;;16.87;100.00
62420;BME280;48460;51.616;5.426;2022-08-19T06:25:03;101354.63;;;16.99;100.00
62420;BME280;48460;51.616;5.426;2022-08-19T06:27:29;101353.56;;;17.02;100.00
62420;BME280;48460;51.616;5.426;2022-08-19T06:29:56;101350.56;;;17.06;100.00
62420;BME280;48460;51.616;5.426;2022-08-19T06:32:21;101354.94;;;17.07;100.00
62420;BME280;48460;51.616;5.426;2022-08-19T06:34:46;101341.41;;;17.11;100.00
62420;BME280;48460;51.616;5.426;2022-08-19T06:37:12;101350.94;;;17.26;100.00
62420;BME280;48460;51.616;5.426;2022-08-19T06:39:40;101345.72;;;17.37;100.00
62420;BME280;48460;51.616;5.426;2022-08-19T06:42:06;101354.25;;;17.53;100.00
62420;BME280;48460;51.616;5.426;2022-08-19T06:44:35;101353.72;;;17.61;100.00
62420;BME280;48460;51.616;5.426;2022-08-19T06:47:03;101354.31;;;17.65;100.00
62420;BME280;48460;51.616;5.426;2022-08-19T06:49:32;101346.63;;;17.73;100.00
62420;BME280;48460;51.616;5.426;2022-08-19T06:51:59;101356.63;;;17.82;100.00
62420;BME280;48460;51.616;5.426;2022-08-19T06:54:25;101350.72;;;17.90;100.00
62420;BME280;48460;51.616;5.426;2022-08-19T06:56:52;101355.75;;;18.06;100.00
62420;BME280;48460;51.616;5.426;2022-08-19T06:59:20;101356.22;;;18.11;100.00
62420;BME280;48460;51.616;5.426;2022-08-19T07:01:50;101359.53;;;18.26;100.00
62420;BME280;48460;51.616;5.426;2022-08-19T07:04:21;101357.19;;;18.45;100.00
62420;BME280;48460;51.616;5.426;2022-08-19T07:06:49;101359.63;;;18.48;100.00
62420;BME280;48460;51.616;5.426;2022-08-19T07:09:16;101360.97;;;18.54;100.00
62420;BME280;48460;51.616;5.426;2022-08-19T07:11:48;101360.25;;;18.63;100.00
62420;BME280;48460;51.616;5.426;2022-08-19T07:14:15;101362.09;;;18.74;100.00
62420;BME280;48460;51.616;5.426;2022-08-19T07:16:43;101366.78;;;18.70;100.00
62420;BME280;48460;51.616;5.426;2022-08-19T07:19:10;101368.78;;;18.44;100.00
62420;BME280;48460;51.616;5.426;2022-08-19T07:21:35;101369.97;;;18.29;100.00
62420;BME280;48460;51.616;5.426;2022-08-19T07:24:00;101382.56;;;18.27;100.00
62420;BME280;48460;51.616;5.426;2022-08-19T07:26:32;101377.09;;;18.28;100.00
62420;BME280;48460;51.616;5.426;2022-08-19T07:28:58;101380.63;;;18.29;100.00
62420;BME280;48460;51.616;5.426;2022-08-19T07:31:27;101386.06;;;18.27;100.00
62420;BME280;48460;51.616;5.426;2022-08-19T07:33:54;101385.09;;;18.28;100.00
62420;BME280;48460;51.616;5.426;2022-08-19T07:36:23;101386.56;;;18.32;100.00
62420;BME280;48460;51.616;5.426;2022-08-19T07:38:50;101386.59;;;18.43;100.00
62420;BME280;48460;51.616;5.426;2022-08-19T07:41:20;101386.50;;;18.56;100.00
62420;BME280;48460;51.616;5.426;2022-08-19T07:43:46;101389.41;;;18.64;100.00
62420;BME280;48460;51.616;5.426;2022-08-19T07:46:12;101386.16;;;18.61;100.00
62420;BME280;48460;51.616;5.426;2022-08-19T07:48:42;101388.94;;;18.59;100.00
62420;BME280;48460;51.616;5.426;2022-08-19T07:51:09;101396.91;;;18.48;100.00
62420;BME280;48460;51.616;5.426;2022-08-19T07:53:36;101396.28;;;18.56;100.00
62420;BME280;48460;51.616;5.426;2022-08-19T07:56:03;101404.28;;;18.56;100.00
62420;BME280;48460;51.616;5.426;2022-08-19T07:58:34;101408.44;;;18.60;100.00
62420;BME280;48460;51.616;5.426;2022-08-19T08:01:01;101407.09;;;18.54;100.00
62420;BME280;48460;51.616;5.426;2022-08-19T08:03:27;101414.59;;;18.60;100.00
62420;BME280;48460;51.616;5.426;2022-08-19T08:06:15;101414.59;;;18.60;100.00
62420;BME280;48460;51.616;5.426;2022-08-19T08:09:03;101406.03;;;18.68;100.00
62420;BME280;48460;51.616;5.426;2022-08-19T08:12:13;101411.97;;;18.72;100.00
62420;BME280;48460;51.616;5.426;2022-08-19T08:14:45;101418.44;;;18.80;100.00
62420;BME280;48460;51.616;5.426;2022-08-19T08:17:13;101415.81;;;18.67;100.00
62420;BME280;48460;51.616;5.426;2022-08-19T08:19:40;101413.16;;;18.67;100.00
62420;BME280;48460;51.616;5.426;2022-08-19T08:22:10;101420.31;;;18.67;100.00
62420;BME280;48460;51.616;5.426;2022-08-19T08:25:15;101416.25;;;18.74;100.00
62420;BME280;48460;51.616;5.426;2022-08-19T08:27:43;101417.31;;;18.72;100.00
62420;BME280;48460;51.616;5.426;2022-08-19T08:30:12;101429.78;;;18.71;100.00
62420;BME280;48460;51.616;5.426;2022-08-19T08:32:39;101429.56;;;18.74;100.00
62420;BME280;48460;51.616;5.426;2022-08-19T08:35:11;101448.28;;;18.73;100.00
62420;BME280;48460;51.616;5.426;2022-08-19T08:37:38;101441.63;;;18.67;100.00
62420;BME280;48460;51.616;5.426;2022-08-19T08:40:10;101441.84;;;18.64;100.00
62420;BME280;48460;51.616;5.426;2022-08-19T08:42:48;101446.50;;;18.73;100.00
62420;BME280;48460;51.616;5.426;2022-08-19T08:45:17;101442.03;;;18.74;100.00
62420;BME280;48460;51.616;5.426;2022-08-19T08:47:48;101454.88;;;18.80;100.00
62420;BME280;48460;51.616;5.426;2022-08-19T08:50:21;101453.31;;;18.88;100.00
62420;BME280;48460;51.616;5.426;2022-08-19T08:52:52;101449.00;;;18.99;100.00
62420;BME280;48460;51.616;5.426;2022-08-19T08:55:24;101449.25;;;19.07;100.00
62420;BME280;48460;51.616;5.426;2022-08-19T09:00:37;101446.94;;;19.25;100.00
62420;BME280;48460;51.616;5.426;2022-08-19T09:03:06;101448.88;;;19.34;100.00
62420;BME280;48460;51.616;5.426;2022-08-19T09:05:56;101437.97;;;19.48;100.00
62420;BME280;48460;51.616;5.426;2022-08-19T09:08:57;101437.97;;;19.48;100.00
62420;BME280;48460;51.616;5.426;2022-08-19T09:11:56;101442.56;;;19.46;100.00
62420;BME280;48460;51.616;5.426;2022-08-19T09:15:12;101443.03;;;19.63;100.00
62420;BME280;48460;51.616;5.426;2022-08-19T09:17:18;101446.31;;;19.77;100.00
62420;BME280;48460;51.616;5.426;2022-08-19T09:20:03;101443.19;;;19.72;100.00
62420;BME280;48460;51.616;5.426;2022-08-19T09:22:32;101442.31;;;19.61;100.00
62420;BME280;48460;51.616;5.426;2022-08-19T09:24:58;101448.25;;;19.53;100.00
62420;BME280;48460;51.616;5.426;2022-08-19T09:27:24;101450.34;;;19.49;100.00
62420;BME280;48460;51.616;5.426;2022-08-19T09:29:51;101459.06;;;19.51;100.00
62420;BME280;48460;51.616;5.426;2022-08-19T09:32:17;101454.69;;;19.50;100.00
62420;BME280;48460;51.616;5.426;2022-08-19T09:34:43;101459.53;;;19.56;99.95
62420;BME280;48460;51.616;5.426;2022-08-19T09:37:09;101460.25;;;19.58;100.00
62420;BME280;48460;51.616;5.426;2022-08-19T09:39:35;101462.69;;;19.62;99.53
62420;BME280;48460;51.616;5.426;2022-08-19T09:42:00;101455.41;;;19.64;99.89
62420;BME280;48460;51.616;5.426;2022-08-19T09:44:28;101456.50;;;19.61;99.45
62420;BME280;48460;51.616;5.426;2022-08-19T09:46:54;101459.31;;;19.71;99.12
62420;BME280;48460;51.616;5.426;2022-08-19T09:49:20;101465.81;;;19.78;99.04
62420;BME280;48460;51.616;5.426;2022-08-19T09:51:50;101458.53;;;19.91;98.04
62420;BME280;48460;51.616;5.426;2022-08-19T09:54:15;101466.13;;;20.07;97.92
62420;BME280;48460;51.616;5.426;2022-08-19T09:56:41;101466.81;;;20.20;96.48
62420;BME280;48460;51.616;5.426;2022-08-19T09:59:06;101469.56;;;20.30;96.53
62420;BME280;48460;51.616;5.426;2022-08-19T10:01:32;101468.06;;;20.37;96.50
62420;BME280;48460;51.616;5.426;2022-08-19T10:03:59;101473.78;;;20.44;95.64
62420;BME280;48460;51.616;5.426;2022-08-19T10:06:27;101472.06;;;20.54;94.55
62420;BME280;48460;51.616;5.426;2022-08-19T10:08:56;101472.47;;;20.70;94.28
62420;BME280;48460;51.616;5.426;2022-08-19T10:11:22;101476.75;;;20.83;92.89
62420;BME280;48460;51.616;5.426;2022-08-19T10:13:48;101479.03;;;20.87;93.60
62420;BME280;48460;51.616;5.426;2022-08-19T10:16:16;101470.16;;;20.87;93.36
62420;BME280;48460;51.616;5.426;2022-08-19T10:18:43;101466.44;;;20.78;92.42
62420;BME280;48460;51.616;5.426;2022-08-19T10:21:23;101468.13;;;20.58;94.13
62420;BME280;48460;51.616;5.426;2022-08-19T10:23:52;101469.25;;;20.56;91.67
62420;BME280;48460;51.616;5.426;2022-08-19T10:26:26;101467.03;;;20.61;91.49
62420;BME280;48460;51.616;5.426;2022-08-19T10:28:52;101464.31;;;20.72;91.61
62420;BME280;48460;51.616;5.426;2022-08-19T10:31:23;101464.34;;;20.61;91.79
62420;BME280;48460;51.616;5.426;2022-08-19T10:33:50;101461.69;;;20.61;91.57
62420;BME280;48460;51.616;5.426;2022-08-19T10:36:20;101458.50;;;20.67;91.96
62420;BME280;48460;51.616;5.426;2022-08-19T10:38:50;101463.13;;;20.65;91.41
62420;BME280;48460;51.616;5.426;2022-08-19T10:41:26;101471.34;;;20.73;91.15
62420;BME280;48460;51.616;5.426;2022-08-19T10:43:53;101465.94;;;20.84;92.11
62420;BME280;48460;51.616;5.426;2022-08-19T10:46:21;101468.59;;;20.84;90.01
62420;BME280;48460;51.616;5.426;2022-08-19T10:48:47;101456.84;;;20.97;90.35
62420;BME280;48460;51.616;5.426;2022-08-19T10:51:13;101452.72;;;21.13;89.50
62420;BME280;48460;51.616;5.426;2022-08-19T10:53:58;101448.78;;;21.17;89.34
62420;BME280;48460;51.616;5.426;2022-08-19T10:56:25;101458.22;;;21.12;88.56
62420;BME280;48460;51.616;5.426;2022-08-19T10:59:09;101451.69;;;21.05;88.20
62420;BME280;48460;51.616;5.426;2022-08-19T11:01:42;101449.97;;;20.94;88.05
62420;BME280;48460;51.616;5.426;2022-08-19T11:04:08;101445.56;;;20.93;88.64
62420;BME280;48460;51.616;5.426;2022-08-19T11:06:37;101443.56;;;21.06;87.95
62420;BME280;48460;51.616;5.426;2022-08-19T11:09:07;101437.78;;;21.11;87.34
62420;BME280;48460;51.616;5.426;2022-08-19T11:11:33;101447.13;;;21.26;87.73
62420;BME280;48460;51.616;5.426;2022-08-19T11:14:14;101451.44;;;21.38;87.16
62420;BME280;48460;51.616;5.426;2022-08-19T11:16:41;101441.75;;;21.47;85.90
62420;BME280;48460;51.616;5.426;2022-08-19T11:19:09;101438.16;;;21.68;85.60
62420;BME280;48460;51.616;5.426;2022-08-19T11:21:37;101442.25;;;21.72;84.60
62420;BME280;48460;51.616;5.426;2022-08-19T11:24:07;101442.00;;;21.94;84.38
62420;BME280;48460;51.616;5.426;2022-08-19T11:26:35;101438.09;;;22.08;82.13
62420;BME280;48460;51.616;5.426;2022-08-19T11:29:02;101448.09;;;22.06;81.75
62420;BME280;48460;51.616;5.426;2022-08-19T11:31:32;101447.72;;;22.20;82.87
62420;BME280;48460;51.616;5.426;2022-08-19T11:34:01;101443.03;;;22.61;81.12
62420;BME280;48460;51.616;5.426;2022-08-19T11:36:29;101432.06;;;23.02;78.20
62420;BME280;48460;51.616;5.426;2022-08-19T11:39:01;101428.44;;;23.30;75.75
62420;BME280;48460;51.616;5.426;2022-08-19T11:41:27;101421.78;;;24.07;72.91
62420;BME280;48460;51.616;5.426;2022-08-19T11:43:53;101417.81;;;24.55;70.33
62420;BME280;48460;51.616;5.426;2022-08-19T11:46:21;101411.44;;;25.09;66.36
62420;BME280;48460;51.616;5.426;2022-08-19T11:48:47;101409.22;;;25.38;64.86
62420;BME280;48460;51.616;5.426;2022-08-19T11:51:17;101406.34;;;25.82;63.18
62420;BME280;48460;51.616;5.426;2022-08-19T11:53:44;101409.25;;;25.97;61.31
62420;BME280;48460;51.616;5.426;2022-08-19T11:56:10;101408.81;;;25.67;61.69
62420;BME280;48460;51.616;5.426;2022-08-19T11:58:36;101413.44;;;25.41;62.63
62420;BME280;48460;51.616;5.426;2022-08-19T12:01:06;101413.66;;;25.56;63.93
62420;BME280;48460;51.616;5.426;2022-08-19T12:03:32;101417.50;;;25.45;63.42
62420;BME280;48460;51.616;5.426;2022-08-19T12:05:57;101414.88;;;25.61;64.29
62420;BME280;48460;51.616;5.426;2022-08-19T12:08:22;101413.16;;;25.52;64.06
62420;BME280;48460;51.616;5.426;2022-08-19T12:10:48;101418.63;;;25.34;63.52
62420;BME280;48460;51.616;5.426;2022-08-19T12:13:14;101417.50;;;24.59;66.12
62420;BME280;48460;51.616;5.426;2022-08-19T12:15:44;101426.72;;;24.38;67.64
62420;BME280;48460;51.616;5.426;2022-08-19T12:18:10;101420.22;;;24.85;67.89
62420;BME280;48460;51.616;5.426;2022-08-19T12:20:37;101422.00;;;25.36;65.93
62420;BME280;48460;51.616;5.426;2022-08-19T12:23:04;101423.16;;;25.76;63.56
62420;BME280;48460;51.616;5.426;2022-08-19T12:25:30;101419.50;;;26.26;60.94
62420;BME280;48460;51.616;5.426;2022-08-19T12:28:03;101421.53;;;26.41;62.57
62420;BME280;48460;51.616;5.426;2022-08-19T12:30:28;101411.31;;;27.08;60.00
62420;BME280;48460;51.616;5.426;2022-08-19T12:32:54;101415.19;;;27.22;58.46
62420;BME280;48460;51.616;5.426;2022-08-19T12:35:19;101405.97;;;28.02;56.11
62420;BME280;48460;51.616;5.426;2022-08-19T12:37:46;101401.69;;;27.53;56.57
62420;BME280;48460;51.616;5.426;2022-08-19T12:40:13;101399.69;;;27.08;58.21
62420;BME280;48460;51.616;5.426;2022-08-19T12:42:39;101402.84;;;26.31;60.62
62420;BME280;48460;51.616;5.426;2022-08-19T12:45:10;101402.06;;;25.63;64.04
62420;BME280;48460;51.616;5.426;2022-08-19T12:47:36;101406.38;;;25.06;64.88
62420;BME280;48460;51.616;5.426;2022-08-19T12:50:02;101413.91;;;24.50;66.65
62420;BME280;48460;51.616;5.426;2022-08-19T12:52:28;101408.34;;;24.07;68.81
62420;BME280;48460;51.616;5.426;2022-08-19T12:54:55;101404.84;;;23.79;71.21